sensor_id;sensor_type;location;lat;lon;timestamp;temperature;humidity
5086;DHT22;4715;51.660;7.082;2022-07-01T00:02:01;15.90;99.90
5086;DHT22;4715;51.660;7.082;2022-07-01T00:04:24;15.80;99.90
5086;DHT22;4715;51.660;7.082;2022-07-01T00:06:47;15.80;99.90
5086;DHT22;4715;51.660;7.082;2022-07-01T00:09:12;15.70;99.90
5086;DHT22;4715;51.660;7.082;2022-07-01T00:11:34;15.70;99.90
5086;DHT22;4715;51.660;7.082;2022-07-01T00:13:56;15.70;99.90
5086;DHT22;4715;51.660;7.082;2022-07-01T00:16:19;15.70;99.90
5086;DHT22;4715;51.660;7.082;2022-07-01T00:18:41;15.70;99.90
5086;DHT22;4715;51.660;7.082;2022-07-01T00:21:05;15.70;99.90
5086;DHT22;4715;51.660;7.082;2022-07-01T00:23:27;15.70;99.90
5086;DHT22;4715;51.660;7.082;2022-07-01T00:25:51;15.70;99.90
5086;DHT22;4715;51.660;7.082;2022-07-01T00:28:15;15.70;99.90
5086;DHT22;4715;51.660;7.082;2022-07-01T00:30:38;15.70;99.90
5086;DHT22;4715;51.660;7.082;2022-07-01T00:33:09;15.80;99.90
5086;DHT22;4715;51.660;7.082;2022-07-01T00:35:31;15.70;99.90
5086;DHT22;4715;51.660;7.082;2022-07-01T00:37:53;15.80;99.90
5086;DHT22;4715;51.660;7.082;2022-07-01T00:40:16;15.80;99.90
5086;DHT22;4715;51.660;7.082;2022-07-01T00:42:42;15.80;99.90
5086;DHT22;4715;51.660;7.082;2022-07-01T00:45:06;15.80;99.90
5086;DHT22;4715;51.660;7.082;2022-07-01T00:47:29;15.90;99.90
5086;DHT22;4715;51.660;7.082;2022-07-01T00:49:51;15.90;99.90
5086;DHT22;4715;51.660;7.082;2022-07-01T00:52:13;15.90;99.90
5086;DHT22;4715;51.660;7.082;2022-07-01T00:54:37;15.90;99.90
5086;DHT22;4715;51.660;7.082;2022-07-01T00:56:59;15.90;99.90
5086;DHT22;4715;51.660;7.082;2022-07-01T00:59:23;15.90;99.90
5086;DHT22;4715;51.660;7.082;2022-07-01T01:01:49;15.90;99.90
5086;DHT22;4715;51.660;7.082;2022-07-01T01:04:11;15.90;99.90
5086;DHT22;4715;51.660;7.082;2022-07-01T01:06:35;15.90;99.90
5086;DHT22;4715;51.660;7.082;2022-07-01T01:08:57;15.90;99.90
5086;DHT22;4715;51.660;7.082;2022-07-01T01:11:21;15.90;99.90
5086;DHT22;4715;51.660;7.082;2022-07-01T01:13:45;15.90;99.90
5086;DHT22;4715;51.660;7.082;2022-07-01T01:16:16;15.90;99.90
5086;DHT22;4715;51.660;7.082;2022-07-01T01:18:41;15.90;99.90
5086;DHT22;4715;51.660;7.082;2022-07-01T01:21:06;15.90;99.90
5086;DHT22;4715;51.660;7.082;2022-07-01T01:23:32;15.80;99.90
5086;DHT22;4715;51.660;7.082;2022-07-01T01:25:55;15.80;99.90
5086;DHT22;4715;51.660;7.082;2022-07-01T01:28:18;15.80;99.90
5086;DHT22;4715;51.660;7.082;2022-07-01T01:30:43;15.80;99.90
5086;DHT22;4715;51.660;7.082;2022-07-01T01:33:05;15.70;99.90
5086;DHT22;4715;51.660;7.082;2022-07-01T01:35:28;15.70;99.90
5086;DHT22;4715;51.660;7.082;2022-07-01T01:37:53;15.70;99.90
5086;DHT22;4715;51.660;7.082;2022-07-01T01:40:17;15.70;99.90
5086;DHT22;4715;51.660;7.082;2022-07-01T01:42:41;15.70;99.90
5086;DHT22;4715;51.660;7.082;2022-07-01T01:45:06;15.70;99.90
5086;DHT22;4715;51.660;7.082;2022-07-01T01:47:30;15.80;99.90
5086;DHT22;4715;51.660;7.082;2022-07-01T01:49:54;15.80;99.90
5086;DHT22;4715;51.660;7.082;2022-07-01T01:52:16;15.80;99.90
5086;DHT22;4715;51.660;7.082;2022-07-01T01:54:39;15.70;99.90
5086;DHT22;4715;51.660;7.082;2022-07-01T01:57:03;15.70;99.90
5086;DHT22;4715;51.660;7.082;2022-07-01T01:59:27;15.70;99.90
5086;DHT22;4715;51.660;7.082;2022-07-01T02:01:49;15.70;99.90
5086;DHT22;4715;51.660;7.082;2022-07-01T02:04:11;15.70;99.90
5086;DHT22;4715;51.660;7.082;2022-07-01T02:06:33;15.70;99.90
5086;DHT22;4715;51.660;7.082;2022-07-01T02:08:59;15.70;99.90
5086;DHT22;4715;51.660;7.082;2022-07-01T02:11:22;15.70;99.90
5086;DHT22;4715;51.660;7.082;2022-07-01T02:13:44;15.70;99.90
5086;DHT22;4715;51.660;7.082;2022-07-01T02:16:09;15.60;99.90
5086;DHT22;4715;51.660;7.082;2022-07-01T02:18:31;15.70;99.90
5086;DHT22;4715;51.660;7.082;2022-07-01T02:20:57;15.60;99.90
5086;DHT22;4715;51.660;7.082;2022-07-01T02:23:22;15.70;99.90
5086;DHT22;4715;51.660;7.082;2022-07-01T02:25:44;15.70;99.90
5086;DHT22;4715;51.660;7.082;2022-07-01T02:28:08;15.70;99.90
5086;DHT22;4715;51.660;7.082;2022-07-01T02:30:32;15.70;99.90
5086;DHT22;4715;51.660;7.082;2022-07-01T02:32:57;15.70;99.90
5086;DHT22;4715;51.660;7.082;2022-07-01T02:35:19;15.70;99.90
5086;DHT22;4715;51.660;7.082;2022-07-01T02:37:42;15.70;99.90
5086;DHT22;4715;51.660;7.082;2022-07-01T02:40:05;15.70;99.90
5086;DHT22;4715;51.660;7.082;2022-07-01T02:42:37;15.60;99.90
5086;DHT22;4715;51.660;7.082;2022-07-01T02:45:01;15.60;99.90
5086;DHT22;4715;51.660;7.082;2022-07-01T02:47:24;15.60;99.90
5086;DHT22;4715;51.660;7.082;2022-07-01T02:49:47;15.60;99.90
5086;DHT22;4715;51.660;7.082;2022-07-01T02:52:10;15.60;99.90
5086;DHT22;4715;51.660;7.082;2022-07-01T02:54:32;15.60;99.90
5086;DHT22;4715;51.660;7.082;2022-07-01T02:56:54;15.50;99.90
5086;DHT22;4715;51.660;7.082;2022-07-01T02:59:18;15.40;99.90
5086;DHT22;4715;51.660;7.082;2022-07-01T03:01:43;15.40;99.90
5086;DHT22;4715;51.660;7.082;2022-07-01T03:04:07;15.40;99.90
5086;DHT22;4715;51.660;7.082;2022-07-01T03:06:29;15.30;99.90
5086;DHT22;4715;51.660;7.082;2022-07-01T03:08:51;15.30;99.90
5086;DHT22;4715;51.660;7.082;2022-07-01T03:11:14;15.30;99.90
5086;DHT22;4715;51.660;7.082;2022-07-01T03:13:38;15.30;99.90
5086;DHT22;4715;51.660;7.082;2022-07-01T03:16:01;15.20;99.90
5086;DHT22;4715;51.660;7.082;2022-07-01T03:18:24;15.30;99.90
5086;DHT22;4715;51.660;7.082;2022-07-01T03:20:47;15.30;99.90
5086;DHT22;4715;51.660;7.082;2022-07-01T03:23:12;15.30;99.90
5086;DHT22;4715;51.660;7.082;2022-07-01T03:25:37;15.20;99.90
5086;DHT22;4715;51.660;7.082;2022-07-01T03:27:59;15.20;99.90
5086;DHT22;4715;51.660;7.082;2022-07-01T03:30:23;15.20;99.90
5086;DHT22;4715;51.660;7.082;2022-07-01T03:32:46;15.20;99.90
5086;DHT22;4715;51.660;7.082;2022-07-01T03:35:11;15.20;99.90
5086;DHT22;4715;51.660;7.082;2022-07-01T03:37:50;15.20;99.90
5086;DHT22;4715;51.660;7.082;2022-07-01T03:40:12;15.30;99.90
5086;DHT22;4715;51.660;7.082;2022-07-01T03:42:37;15.30;99.90
5086;DHT22;4715;51.660;7.082;2022-07-01T03:45:00;15.30;99.90
5086;DHT22;4715;51.660;7.082;2022-07-01T03:47:22;15.30;99.90
5086;DHT22;4715;51.660;7.082;2022-07-01T03:49:44;15.30;99.90
5086;DHT22;4715;51.660;7.082;2022-07-01T03:52:08;15.30;99.90
5086;DHT22;4715;51.660;7.082;2022-07-01T03:54:31;15.20;99.90
5086;DHT22;4715;51.660;7.082;2022-07-01T03:56:53;15.20;99.90
5086;DHT22;4715;51.660;7.082;2022-07-01T03:59:15;15.20;99.90
5086;DHT22;4715;51.660;7.082;2022-07-01T04:01:38;15.20;99.90
5086;DHT22;4715;51.660;7.082;2022-07-01T04:04:00;15.20;99.90
5086;DHT22;4715;51.660;7.082;2022-07-01T04:06:22;15.20;99.90
5086;DHT22;4715;51.660;7.082;2022-07-01T04:08:47;15.20;99.90
5086;DHT22;4715;51.660;7.082;2022-07-01T04:11:10;15.20;99.90
5086;DHT22;4715;51.660;7.082;2022-07-01T04:13:33;15.20;99.90
5086;DHT22;4715;51.660;7.082;2022-07-01T04:15:59;15.20;99.90
5086;DHT22;4715;51.660;7.082;2022-07-01T04:18:21;15.20;99.90
5086;DHT22;4715;51.660;7.082;2022-07-01T04:20:46;15.20;99.90
5086;DHT22;4715;51.660;7.082;2022-07-01T04:23:28;15.20;99.90
5086;DHT22;4715;51.660;7.082;2022-07-01T04:25:51;15.10;99.90
5086;DHT22;4715;51.660;7.082;2022-07-01T04:28:13;15.20;99.90
5086;DHT22;4715;51.660;7.082;2022-07-01T04:30:35;15.20;99.90
5086;DHT22;4715;51.660;7.082;2022-07-01T04:32:57;15.20;99.90
5086;DHT22;4715;51.660;7.082;2022-07-01T04:35:21;15.10;99.90
5086;DHT22;4715;51.660;7.082;2022-07-01T04:37:44;15.10;99.90
5086;DHT22;4715;51.660;7.082;2022-07-01T04:40:07;15.10;99.90
5086;DHT22;4715;51.660;7.082;2022-07-01T04:42:33;15.10;99.90
5086;DHT22;4715;51.660;7.082;2022-07-01T04:44:55;15.10;99.90
5086;DHT22;4715;51.660;7.082;2022-07-01T04:47:18;15.10;99.90
5086;DHT22;4715;51.660;7.082;2022-07-01T04:49:41;15.10;99.90
5086;DHT22;4715;51.660;7.082;2022-07-01T04:52:04;15.20;99.90
5086;DHT22;4715;51.660;7.082;2022-07-01T04:54:28;15.20;99.90
5086;DHT22;4715;51.660;7.082;2022-07-01T04:56:51;15.20;99.90
5086;DHT22;4715;51.660;7.082;2022-07-01T04:59:19;15.20;99.90
5086;DHT22;4715;51.660;7.082;2022-07-01T05:01:42;15.20;99.90
5086;DHT22;4715;51.660;7.082;2022-07-01T05:04:05;15.20;99.90
5086;DHT22;4715;51.660;7.082;2022-07-01T05:06:27;15.20;99.90
5086;DHT22;4715;51.660;7.082;2022-07-01T05:08:52;15.20;99.90
5086;DHT22;4715;51.660;7.082;2022-07-01T05:11:14;15.20;99.90
5086;DHT22;4715;51.660;7.082;2022-07-01T05:13:36;15.20;99.90
5086;DHT22;4715;51.660;7.082;2022-07-01T05:15:59;15.30;99.90
5086;DHT22;4715;51.660;7.082;2022-07-01T05:18:21;15.30;99.90
5086;DHT22;4715;51.660;7.082;2022-07-01T05:21:01;15.30;99.90
5086;DHT22;4715;51.660;7.082;2022-07-01T05:23:40;15.30;99.90
5086;DHT22;4715;51.660;7.082;2022-07-01T05:26:03;15.40;99.90
5086;DHT22;4715;51.660;7.082;2022-07-01T05:28:25;15.40;99.90
5086;DHT22;4715;51.660;7.082;2022-07-01T05:30:47;15.40;99.90
5086;DHT22;4715;51.660;7.082;2022-07-01T05:33:10;15.40;99.90
5086;DHT22;4715;51.660;7.082;2022-07-01T05:35:32;15.40;99.90
5086;DHT22;4715;51.660;7.082;2022-07-01T05:37:54;15.40;99.90
5086;DHT22;4715;51.660;7.082;2022-07-01T05:40:16;15.50;99.90
5086;DHT22;4715;51.660;7.082;2022-07-01T05:42:38;15.50;99.90
5086;DHT22;4715;51.660;7.082;2022-07-01T05:45:00;15.50;99.90
5086;DHT22;4715;51.660;7.082;2022-07-01T05:47:22;15.50;99.90
5086;DHT22;4715;51.660;7.082;2022-07-01T05:49:45;15.60;99.90
5086;DHT22;4715;51.660;7.082;2022-07-01T05:52:07;15.60;99.90
5086;DHT22;4715;51.660;7.082;2022-07-01T05:54:29;15.60;99.90
5086;DHT22;4715;51.660;7.082;2022-07-01T05:56:51;15.60;99.90
5086;DHT22;4715;51.660;7.082;2022-07-01T05:59:13;15.70;99.90
5086;DHT22;4715;51.660;7.082;2022-07-01T06:01:35;15.70;99.90
5086;DHT22;4715;51.660;7.082;2022-07-01T06:03:57;15.80;99.90
5086;DHT22;4715;51.660;7.082;2022-07-01T06:06:20;15.80;99.90
5086;DHT22;4715;51.660;7.082;2022-07-01T06:08:42;15.90;99.90
5086;DHT22;4715;51.660;7.082;2022-07-01T06:11:03;15.90;99.90
5086;DHT22;4715;51.660;7.082;2022-07-01T06:13:25;15.90;99.90
5086;DHT22;4715;51.660;7.082;2022-07-01T06:15:49;15.90;99.90
5086;DHT22;4715;51.660;7.082;2022-07-01T06:18:11;15.90;99.90
5086;DHT22;4715;51.660;7.082;2022-07-01T06:20:33;15.80;99.90
5086;DHT22;4715;51.660;7.082;2022-07-01T06:22:56;15.80;99.90
5086;DHT22;4715;51.660;7.082;2022-07-01T06:25:20;15.80;99.90
5086;DHT22;4715;51.660;7.082;2022-07-01T06:27:43;15.80;99.90
5086;DHT22;4715;51.660;7.082;2022-07-01T06:30:07;15.80;99.90
5086;DHT22;4715;51.660;7.082;2022-07-01T06:32:29;15.80;99.90
5086;DHT22;4715;51.660;7.082;2022-07-01T06:34:51;15.80;99.90
5086;DHT22;4715;51.660;7.082;2022-07-01T06:37:14;15.80;99.90
5086;DHT22;4715;51.660;7.082;2022-07-01T06:39:37;15.90;99.90
5086;DHT22;4715;51.660;7.082;2022-07-01T06:41:59;15.90;99.90
5086;DHT22;4715;51.660;7.082;2022-07-01T06:44:22;16.00;99.90
5086;DHT22;4715;51.660;7.082;2022-07-01T06:46:44;16.00;99.90
5086;DHT22;4715;51.660;7.082;2022-07-01T06:49:06;16.10;99.90
5086;DHT22;4715;51.660;7.082;2022-07-01T06:51:28;16.20;99.90
5086;DHT22;4715;51.660;7.082;2022-07-01T06:53:50;16.30;99.90
5086;DHT22;4715;51.660;7.082;2022-07-01T06:56:14;16.30;99.90
5086;DHT22;4715;51.660;7.082;2022-07-01T06:58:36;16.30;99.90
5086;DHT22;4715;51.660;7.082;2022-07-01T07:00:58;16.40;99.90
5086;DHT22;4715;51.660;7.082;2022-07-01T07:03:20;16.50;99.90
5086;DHT22;4715;51.660;7.082;2022-07-01T07:05:42;16.60;99.90
5086;DHT22;4715;51.660;7.082;2022-07-01T07:08:04;16.70;99.90
5086;DHT22;4715;51.660;7.082;2022-07-01T07:10:26;16.70;99.90
5086;DHT22;4715;51.660;7.082;2022-07-01T07:12:49;16.70;99.90
5086;DHT22;4715;51.660;7.082;2022-07-01T07:15:11;16.70;99.90
5086;DHT22;4715;51.660;7.082;2022-07-01T07:17:33;16.60;99.90
5086;DHT22;4715;51.660;7.082;2022-07-01T07:19:55;16.60;99.90
5086;DHT22;4715;51.660;7.082;2022-07-01T07:22:17;16.50;99.90
5086;DHT22;4715;51.660;7.082;2022-07-01T07:24:39;16.50;99.90
5086;DHT22;4715;51.660;7.082;2022-07-01T07:27:01;16.60;99.90
5086;DHT22;4715;51.660;7.082;2022-07-01T07:29:25;16.60;99.90
5086;DHT22;4715;51.660;7.082;2022-07-01T07:31:47;16.60;99.90
5086;DHT22;4715;51.660;7.082;2022-07-01T07:34:09;16.70;99.90
5086;DHT22;4715;51.660;7.082;2022-07-01T07:36:31;16.70;99.90
5086;DHT22;4715;51.660;7.082;2022-07-01T07:38:53;16.70;99.90
5086;DHT22;4715;51.660;7.082;2022-07-01T07:41:15;16.70;99.90
5086;DHT22;4715;51.660;7.082;2022-07-01T07:43:37;16.70;99.90
5086;DHT22;4715;51.660;7.082;2022-07-01T07:46:04;16.80;99.90
5086;DHT22;4715;51.660;7.082;2022-07-01T07:48:26;17.00;99.90
5086;DHT22;4715;51.660;7.082;2022-07-01T07:50:48;17.20;99.90
5086;DHT22;4715;51.660;7.082;2022-07-01T07:53:09;17.40;99.90
5086;DHT22;4715;51.660;7.082;2022-07-01T07:55:32;17.50;99.90
5086;DHT22;4715;51.660;7.082;2022-07-01T07:57:55;17.50;99.90
5086;DHT22;4715;51.660;7.082;2022-07-01T08:00:17;17.50;99.90
5086;DHT22;4715;51.660;7.082;2022-07-01T08:02:41;17.60;99.90
5086;DHT22;4715;51.660;7.082;2022-07-01T08:05:03;17.50;99.90
5086;DHT22;4715;51.660;7.082;2022-07-01T08:07:25;17.40;99.90
5086;DHT22;4715;51.660;7.082;2022-07-01T08:09:47;17.40;99.90
5086;DHT22;4715;51.660;7.082;2022-07-01T08:12:09;17.30;99.90
5086;DHT22;4715;51.660;7.082;2022-07-01T08:14:32;17.20;99.90
5086;DHT22;4715;51.660;7.082;2022-07-01T08:16:54;17.20;99.90
5086;DHT22;4715;51.660;7.082;2022-07-01T08:19:18;17.30;99.90
5086;DHT22;4715;51.660;7.082;2022-07-01T08:21:39;17.30;99.90
5086;DHT22;4715;51.660;7.082;2022-07-01T08:24:02;17.40;99.90
5086;DHT22;4715;51.660;7.082;2022-07-01T08:26:23;17.30;99.90
5086;DHT22;4715;51.660;7.082;2022-07-01T08:28:45;17.30;99.90
5086;DHT22;4715;51.660;7.082;2022-07-01T08:31:07;17.30;99.90
5086;DHT22;4715;51.660;7.082;2022-07-01T08:33:29;17.20;99.90
5086;DHT22;4715;51.660;7.082;2022-07-01T08:35:52;17.20;99.90
5086;DHT22;4715;51.660;7.082;2022-07-01T08:38:16;17.20;99.90
5086;DHT22;4715;51.660;7.082;2022-07-01T08:40:40;17.30;99.90
5086;DHT22;4715;51.660;7.082;2022-07-01T08:43:05;17.30;99.90
5086;DHT22;4715;51.660;7.082;2022-07-01T08:45:33;17.20;99.90
5086;DHT22;4715;51.660;7.082;2022-07-01T08:47:59;17.20;99.90
5086;DHT22;4715;51.660;7.082;2022-07-01T08:50:22;17.30;99.90
5086;DHT22;4715;51.660;7.082;2022-07-01T08:52:46;17.30;99.90
5086;DHT22;4715;51.660;7.082;2022-07-01T08:55:11;17.50;99.90
5086;DHT22;4715;51.660;7.082;2022-07-01T08:57:35;17.60;99.90
5086;DHT22;4715;51.660;7.082;2022-07-01T09:00:04;17.80;99.90
5086;DHT22;4715;51.660;7.082;2022-07-01T09:02:49;17.80;99.90
5086;DHT22;4715;51.660;7.082;2022-07-01T09:05:11;17.90;99.90
5086;DHT22;4715;51.660;7.082;2022-07-01T09:07:36;17.90;99.90
5086;DHT22;4715;51.660;7.082;2022-07-01T09:10:15;17.90;99.90
5086;DHT22;4715;51.660;7.082;2022-07-01T09:12:42;17.90;99.90
5086;DHT22;4715;51.660;7.082;2022-07-01T09:15:19;18.00;99.90
5086;DHT22;4715;51.660;7.082;2022-07-01T09:17:51;18.10;99.90
5086;DHT22;4715;51.660;7.082;2022-07-01T09:20:24;18.10;99.90
5086;DHT22;4715;51.660;7.082;2022-07-01T09:23:00;18.20;99.90
5086;DHT22;4715;51.660;7.082;2022-07-01T09:25:29;18.20;99.90
5086;DHT22;4715;51.660;7.082;2022-07-01T09:28:03;18.20;99.90
5086;DHT22;4715;51.660;7.082;2022-07-01T09:30:29;18.30;99.90
5086;DHT22;4715;51.660;7.082;2022-07-01T09:33:11;18.50;99.90
5086;DHT22;4715;51.660;7.082;2022-07-01T09:35:35;18.70;99.90
5086;DHT22;4715;51.660;7.082;2022-07-01T09:38:10;18.60;99.90
5086;DHT22;4715;51.660;7.082;2022-07-01T09:40:48;18.60;99.90
5086;DHT22;4715;51.660;7.082;2022-07-01T09:43:14;18.50;99.90
5086;DHT22;4715;51.660;7.082;2022-07-01T09:45:36;18.60;99.90
5086;DHT22;4715;51.660;7.082;2022-07-01T09:47:58;18.60;99.90
5086;DHT22;4715;51.660;7.082;2022-07-01T09:50:21;18.70;99.90
5086;DHT22;4715;51.660;7.082;2022-07-01T09:52:43;18.80;99.90
5086;DHT22;4715;51.660;7.082;2022-07-01T09:55:07;18.70;99.90
5086;DHT22;4715;51.660;7.082;2022-07-01T09:57:30;18.80;99.90
5086;DHT22;4715;51.660;7.082;2022-07-01T09:59:55;18.80;99.90
5086;DHT22;4715;51.660;7.082;2022-07-01T10:02:18;18.90;99.90
5086;DHT22;4715;51.660;7.082;2022-07-01T10:04:45;19.00;99.90
5086;DHT22;4715;51.660;7.082;2022-07-01T10:07:19;19.00;99.90
5086;DHT22;4715;51.660;7.082;2022-07-01T10:09:55;19.10;99.90
5086;DHT22;4715;51.660;7.082;2022-07-01T10:12:36;19.10;99.90
5086;DHT22;4715;51.660;7.082;2022-07-01T10:15:01;19.10;99.90
5086;DHT22;4715;51.660;7.082;2022-07-01T10:17:28;19.20;99.90
5086;DHT22;4715;51.660;7.082;2022-07-01T10:19:54;19.40;99.90
5086;DHT22;4715;51.660;7.082;2022-07-01T10:22:27;19.40;99.90
5086;DHT22;4715;51.660;7.082;2022-07-01T10:24:49;19.50;99.90
5086;DHT22;4715;51.660;7.082;2022-07-01T10:27:19;19.60;99.90
5086;DHT22;4715;51.660;7.082;2022-07-01T10:29:43;19.60;99.90
5086;DHT22;4715;51.660;7.082;2022-07-01T10:32:09;19.60;99.90
5086;DHT22;4715;51.660;7.082;2022-07-01T10:34:36;19.60;99.90
5086;DHT22;4715;51.660;7.082;2022-07-01T10:37:02;19.60;99.90
5086;DHT22;4715;51.660;7.082;2022-07-01T10:39:24;19.60;99.90
5086;DHT22;4715;51.660;7.082;2022-07-01T10:42:01;19.80;99.90
5086;DHT22;4715;51.660;7.082;2022-07-01T10:44:26;19.90;99.90
5086;DHT22;4715;51.660;7.082;2022-07-01T10:46:51;19.90;99.90
5086;DHT22;4715;51.660;7.082;2022-07-01T10:49:18;20.00;99.90
5086;DHT22;4715;51.660;7.082;2022-07-01T10:51:48;20.10;99.90
5086;DHT22;4715;51.660;7.082;2022-07-01T10:54:10;20.20;99.90
5086;DHT22;4715;51.660;7.082;2022-07-01T10:56:38;20.30;99.90
5086;DHT22;4715;51.660;7.082;2022-07-01T10:59:01;20.40;99.90
5086;DHT22;4715;51.660;7.082;2022-07-01T11:01:23;20.50;99.90
5086;DHT22;4715;51.660;7.082;2022-07-01T11:03:47;20.60;99.90
5086;DHT22;4715;51.660;7.082;2022-07-01T11:06:10;20.60;99.90
5086;DHT22;4715;51.660;7.082;2022-07-01T11:08:32;20.80;99.90
5086;DHT22;4715;51.660;7.082;2022-07-01T11:10:56;20.90;99.90
5086;DHT22;4715;51.660;7.082;2022-07-01T11:13:19;20.90;99.90
5086;DHT22;4715;51.660;7.082;2022-07-01T11:15:44;20.80;99.90
5086;DHT22;4715;51.660;7.082;2022-07-01T11:18:07;20.70;99.90
5086;DHT22;4715;51.660;7.082;2022-07-01T11:20:32;20.60;99.90
5086;DHT22;4715;51.660;7.082;2022-07-01T11:22:55;20.60;99.90
5086;DHT22;4715;51.660;7.082;2022-07-01T11:25:18;20.50;99.90
5086;DHT22;4715;51.660;7.082;2022-07-01T11:27:45;20.60;99.90
5086;DHT22;4715;51.660;7.082;2022-07-01T11:30:11;20.50;99.90
5086;DHT22;4715;51.660;7.082;2022-07-01T11:32:34;20.50;99.90
5086;DHT22;4715;51.660;7.082;2022-07-01T11:34:58;20.70;99.90
5086;DHT22;4715;51.660;7.082;2022-07-01T11:37:27;20.80;99.90
5086;DHT22;4715;51.660;7.082;2022-07-01T11:40:08;20.90;99.90
5086;DHT22;4715;51.660;7.082;2022-07-01T11:42:32;21.00;99.90
5086;DHT22;4715;51.660;7.082;2022-07-01T11:44:54;21.00;99.90
5086;DHT22;4715;51.660;7.082;2022-07-01T11:47:23;21.00;99.90
5086;DHT22;4715;51.660;7.082;2022-07-01T11:49:46;20.90;99.90
5086;DHT22;4715;51.660;7.082;2022-07-01T11:52:09;20.90;99.90
5086;DHT22;4715;51.660;7.082;2022-07-01T11:54:37;20.90;99.90
5086;DHT22;4715;51.660;7.082;2022-07-01T11:57:08;21.10;99.90
5086;DHT22;4715;51.660;7.082;2022-07-01T11:59:30;21.20;99.90
5086;DHT22;4715;51.660;7.082;2022-07-01T12:01:55;21.20;99.90
5086;DHT22;4715;51.660;7.082;2022-07-01T12:04:17;21.10;99.90
5086;DHT22;4715;51.660;7.082;2022-07-01T12:06:39;21.20;99.90
5086;DHT22;4715;51.660;7.082;2022-07-01T12:09:03;21.30;99.90
5086;DHT22;4715;51.660;7.082;2022-07-01T12:11:27;21.30;99.90
5086;DHT22;4715;51.660;7.082;2022-07-01T12:13:50;21.20;99.90
5086;DHT22;4715;51.660;7.082;2022-07-01T12:16:13;21.20;99.90
5086;DHT22;4715;51.660;7.082;2022-07-01T12:18:36;21.40;99.90
5086;DHT22;4715;51.660;7.082;2022-07-01T12:20:58;21.70;99.90
5086;DHT22;4715;51.660;7.082;2022-07-01T12:23:20;21.90;99.90
5086;DHT22;4715;51.660;7.082;2022-07-01T12:25:47;21.80;99.90
5086;DHT22;4715;51.660;7.082;2022-07-01T12:31:06;21.80;99.90
5086;DHT22;4715;51.660;7.082;2022-07-01T12:33:28;21.70;99.90
5086;DHT22;4715;51.660;7.082;2022-07-01T12:35:50;21.80;99.90
5086;DHT22;4715;51.660;7.082;2022-07-01T12:38:15;21.80;99.90
5086;DHT22;4715;51.660;7.082;2022-07-01T12:40:37;21.80;99.90
5086;DHT22;4715;51.660;7.082;2022-07-01T12:42:59;21.80;99.90
5086;DHT22;4715;51.660;7.082;2022-07-01T12:45:27;21.90;99.90
5086;DHT22;4715;51.660;7.082;2022-07-01T12:47:51;22.00;99.90
5086;DHT22;4715;51.660;7.082;2022-07-01T12:50:16;22.10;99.90
5086;DHT22;4715;51.660;7.082;2022-07-01T12:52:43;22.00;99.90
5086;DHT22;4715;51.660;7.082;2022-07-01T12:55:17;21.70;99.90
5086;DHT22;4715;51.660;7.082;2022-07-01T12:57:54;21.50;99.90
5086;DHT22;4715;51.660;7.082;2022-07-01T13:00:22;21.50;99.90
5086;DHT22;4715;51.660;7.082;2022-07-01T13:02:52;21.60;99.90
5086;DHT22;4715;51.660;7.082;2022-07-01T13:05:21;21.80;99.90
5086;DHT22;4715;51.660;7.082;2022-07-01T13:07:45;21.90;99.90
5086;DHT22;4715;51.660;7.082;2022-07-01T13:10:07;21.90;99.90
5086;DHT22;4715;51.660;7.082;2022-07-01T13:12:30;22.00;99.90
5086;DHT22;4715;51.660;7.082;2022-07-01T13:14:55;22.10;99.90
5086;DHT22;4715;51.660;7.082;2022-07-01T13:17:18;22.10;99.90
5086;DHT22;4715;51.660;7.082;2022-07-01T13:19:42;22.00;99.90
5086;DHT22;4715;51.660;7.082;2022-07-01T13:22:04;22.10;99.90
5086;DHT22;4715;51.660;7.082;2022-07-01T13:24:27;22.10;99.90
5086;DHT22;4715;51.660;7.082;2022-07-01T13:26:52;22.10;99.90
5086;DHT22;4715;51.660;7.082;2022-07-01T13:29:15;22.10;99.90
5086;DHT22;4715;51.660;7.082;2022-07-01T13:31:38;22.00;99.90
5086;DHT22;4715;51.660;7.082;2022-07-01T13:34:01;21.90;99.90
5086;DHT22;4715;51.660;7.082;2022-07-01T13:36:24;21.90;99.90
5086;DHT22;4715;51.660;7.082;2022-07-01T13:38:46;21.90;99.90
5086;DHT22;4715;51.660;7.082;2022-07-01T13:41:09;22.00;99.90
5086;DHT22;4715;51.660;7.082;2022-07-01T13:43:34;22.10;99.70
5086;DHT22;4715;51.660;7.082;2022-07-01T13:45:56;22.10;99.50
5086;DHT22;4715;51.660;7.082;2022-07-01T13:48:19;22.20;99.20
5086;DHT22;4715;51.660;7.082;2022-07-01T13:50:43;22.30;98.90
5086;DHT22;4715;51.660;7.082;2022-07-01T13:53:08;22.40;98.30
5086;DHT22;4715;51.660;7.082;2022-07-01T13:55:30;22.30;96.50
5086;DHT22;4715;51.660;7.082;2022-07-01T13:57:52;22.30;96.90
5086;DHT22;4715;51.660;7.082;2022-07-01T14:00:15;22.40;97.40
5086;DHT22;4715;51.660;7.082;2022-07-01T14:02:37;22.60;97.70
5086;DHT22;4715;51.660;7.082;2022-07-01T14:05:02;22.60;97.30
5086;DHT22;4715;51.660;7.082;2022-07-01T14:07:25;22.60;97.10
5086;DHT22;4715;51.660;7.082;2022-07-01T14:09:51;22.60;96.60
5086;DHT22;4715;51.660;7.082;2022-07-01T14:12:13;22.60;96.10
5086;DHT22;4715;51.660;7.082;2022-07-01T14:14:35;22.60;96.30
5086;DHT22;4715;51.660;7.082;2022-07-01T14:16:57;22.70;96.10
5086;DHT22;4715;51.660;7.082;2022-07-01T14:19:19;22.70;95.60
5086;DHT22;4715;51.660;7.082;2022-07-01T14:21:41;22.50;94.80
5086;DHT22;4715;51.660;7.082;2022-07-01T14:24:03;22.30;95.20
5086;DHT22;4715;51.660;7.082;2022-07-01T14:26:27;22.20;95.70
5086;DHT22;4715;51.660;7.082;2022-07-01T14:28:49;22.20;96.30
5086;DHT22;4715;51.660;7.082;2022-07-01T14:31:11;22.30;96.10
5086;DHT22;4715;51.660;7.082;2022-07-01T14:33:33;22.40;96.10
5086;DHT22;4715;51.660;7.082;2022-07-01T14:35:55;22.40;95.70
5086;DHT22;4715;51.660;7.082;2022-07-01T14:38:18;22.40;95.60
5086;DHT22;4715;51.660;7.082;2022-07-01T14:40:40;22.30;95.90
5086;DHT22;4715;51.660;7.082;2022-07-01T14:43:03;22.40;96.00
5086;DHT22;4715;51.660;7.082;2022-07-01T14:45:25;22.40;95.70
5086;DHT22;4715;51.660;7.082;2022-07-01T14:47:47;22.50;95.50
5086;DHT22;4715;51.660;7.082;2022-07-01T14:50:10;22.60;95.60
5086;DHT22;4715;51.660;7.082;2022-07-01T14:52:32;22.70;95.40
5086;DHT22;4715;51.660;7.082;2022-07-01T14:54:57;22.70;94.60
5086;DHT22;4715;51.660;7.082;2022-07-01T14:57:19;22.70;94.00
5086;DHT22;4715;51.660;7.082;2022-07-01T14:59:42;22.60;94.00
5086;DHT22;4715;51.660;7.082;2022-07-01T15:02:04;22.60;94.40
5086;DHT22;4715;51.660;7.082;2022-07-01T15:04:26;22.60;94.60
5086;DHT22;4715;51.660;7.082;2022-07-01T15:06:48;22.60;94.90
5086;DHT22;4715;51.660;7.082;2022-07-01T15:09:10;22.50;95.00
5086;DHT22;4715;51.660;7.082;2022-07-01T15:11:32;22.30;95.20
5086;DHT22;4715;51.660;7.082;2022-07-01T15:13:54;22.30;95.40
5086;DHT22;4715;51.660;7.082;2022-07-01T15:16:17;22.20;95.70
5086;DHT22;4715;51.660;7.082;2022-07-01T15:18:39;22.10;96.20
5086;DHT22;4715;51.660;7.082;2022-07-01T15:21:05;22.10;96.50
5086;DHT22;4715;51.660;7.082;2022-07-01T15:23:27;22.10;96.60
5086;DHT22;4715;51.660;7.082;2022-07-01T15:25:50;22.20;96.20
5086;DHT22;4715;51.660;7.082;2022-07-01T15:28:12;22.20;96.20
5086;DHT22;4715;51.660;7.082;2022-07-01T15:30:34;22.20;95.70
5086;DHT22;4715;51.660;7.082;2022-07-01T15:32:58;22.20;95.20
5086;DHT22;4715;51.660;7.082;2022-07-01T15:35:20;22.20;95.10
5086;DHT22;4715;51.660;7.082;2022-07-01T15:37:43;22.30;95.30
5086;DHT22;4715;51.660;7.082;2022-07-01T15:40:07;22.40;95.00
5086;DHT22;4715;51.660;7.082;2022-07-01T15:42:32;22.50;94.90
5086;DHT22;4715;51.660;7.082;2022-07-01T15:44:54;22.50;94.50